CheckWX is a tool to help pilots better visualize weather data.  It is not intended as a substitute for an official pre-flight weather briefing.

07:42:50 UTC

KIPT TAF
Williamsport Regional Airport
Williamsport, Pennsylvania, USA
KIPT 260719Z 2607/2706 00000KT P6SM FEW006 BKN012 FM261200 27008KT P6SM SCT035 FM261500 28010G20KT P6SM VCSH BKN040

May-26@
07:00 UTC

May-26 @ 07:00 UTC

May-26@
12:00 UTC

May-26 @ 12:00 UTC

KIPT 260719Z 2607/2706 00000KT P6SM FEW006 BKN012
Cloud Levels
  • Few at 600' AGL
  • Broken at 1,200' AGL

May-26@
12:00 UTC

May-26 @ 12:00 UTC

May-26@
15:00 UTC

May-26 @ 15:00 UTC

FM261200 27008KT P6SM SCT035

From

From Standard forecast or significant change

Wind
  • 270° at 8 KTS
Cloud Levels
  • Scattered at 3,500' AGL

May-26@
15:00 UTC

May-26 @ 15:00 UTC

May-27@
06:00 UTC

May-27 @ 06:00 UTC

FM261500 28010G20KT P6SM VCSH BKN040

From

From Standard forecast or significant change

Wind
  • 280° at 10 KTS
  • {Gusting to 20 KTS
Cloud Levels
  • Broken at 4,000' AGL